Time;durP1;ratioP1;P1;durP2;ratioP2;P2;SDS_P1;SDS_P2;PMS_P1;PMS_P2;Temp;Humidity;BMP_temperature;BMP_pressure;BME280_temperature;BME280_humidity;BME280_pressure;Samples;Min_cycle;Max_cycle;Signal;HPM_P1;HPM_P2
2023/08/04 00:01:14;;;;;;;;;;;;;;;24.58;100.00;98516.50;5035337;28;19932;-86
2023/08/04 00:03:40;;;;;;;;;;;;;;;24.47;100.00;98506.69;5036981;28;19921;-85
2023/08/04 00:06:08;;;;;;;;;;;;;;;24.43;100.00;98503.72;5037017;28;20387;-86
2023/08/04 00:08:34;;;;;;;;;;;;;;;24.28;100.00;98508.16;5036658;28;19921;-85
2023/08/04 00:10:59;;;;;;;;;;;;;;;23.95;100.00;98522.63;5036719;28;20435;-87
2023/08/04 00:13:25;;;;;;;;;;;;;;;23.97;100.00;98523.22;5037054;28;19930;-87
2023/08/04 00:15:50;;;;;;;;;;;;;;;24.02;100.00;98517.88;5037317;28;19921;-86
2023/08/04 00:18:15;;;;;;;;;;;;;;;24.03;100.00;98520.28;5042785;28;19979;-88
2023/08/04 00:20:41;;;;;;;;;;;;;;;23.91;100.00;98522.34;5039027;28;19921;-87
2023/08/04 00:23:06;;;;;;;;;;;;;;;23.85;100.00;98517.97;5036457;28;19925;-85
2023/08/04 00:25:31;;;;;;;;;;;;;;;23.95;100.00;98514.56;5036058;28;20281;-86
2023/08/04 00:27:58;;;;;;;;;;;;;;;23.76;100.00;98514.09;5036585;28;19975;-84
2023/08/04 00:30:25;;;;;;;;;;;;;;;23.72;100.00;98528.31;5036132;28;20439;-86
2023/08/04 00:32:51;;;;;;;;;;;;;;;23.73;100.00;98521.88;5036869;28;19917;-86
2023/08/04 00:35:16;;;;;;;;;;;;;;;23.70;100.00;98528.56;5036253;28;20308;-86
2023/08/04 00:37:41;;;;;;;;;;;;;;;23.72;100.00;98529.13;5036493;28;19940;-85
2023/08/04 00:40:09;;;;;;;;;;;;;;;23.71;100.00;98532.06;5034822;28;19928;-85
2023/08/04 00:42:34;;;;;;;;;;;;;;;23.71;100.00;98538.28;5035619;28;19922;-86
2023/08/04 00:44:59;;;;;;;;;;;;;;;23.71;100.00;98532.88;5036005;28;19917;-86
2023/08/04 00:47:25;;;;;;;;;;;;;;;23.72;100.00;98529.13;5036059;28;19925;-87
2023/08/04 00:49:52;;;;;;;;;;;;;;;23.63;100.00;98536.84;5002313;28;19964;-86
2023/08/04 00:52:18;;;;;;;;;;;;;;;23.60;100.00;98531.97;5036108;28;19952;-86
2023/08/04 00:54:45;;;;;;;;;;;;;;;23.59;100.00;98534.91;5036575;28;20020;-88
2023/08/04 00:57:10;;;;;;;;;;;;;;;23.61;100.00;98538.16;5035019;28;20429;-85
2023/08/04 00:59:36;;;;;;;;;;;;;;;23.56;100.00;98535.41;5032731;28;19921;-86
2023/08/04 01:02:01;;;;;;;;;;;;;;;23.57;100.00;98537.00;5033342;28;19925;-87
2023/08/04 01:04:28;;;;;;;;;;;;;;;23.57;100.00;98553.19;5034314;28;19925;-86
2023/08/04 01:07:13;;;;;;;;;;;;;;;23.56;100.00;98546.19;5001739;28;19924;-87
2023/08/04 01:09:41;;;;;;;;;;;;;;;23.55;100.00;98549.94;5026825;28;20011;-87
2023/08/04 01:12:06;;;;;;;;;;;;;;;23.48;100.00;98549.31;5034802;28;19929;-86
2023/08/04 01:14:32;;;;;;;;;;;;;;;23.47;100.00;98542.28;5034156;28;20064;-83
2023/08/04 01:17:01;;;;;;;;;;;;;;;23.46;100.00;98556.78;5034990;28;19921;-83
2023/08/04 01:19:26;;;;;;;;;;;;;;;23.45;100.00;98555.97;5035170;28;19972;-85
2023/08/04 01:21:52;;;;;;;;;;;;;;;23.46;100.00;98546.00;4998732;28;19995;-85
2023/08/04 01:24:17;;;;;;;;;;;;;;;23.41;100.00;98549.44;5035204;28;19928;-88
2023/08/04 01:26:46;;;;;;;;;;;;;;;23.09;100.00;98549.28;5033741;28;19951;-85
2023/08/04 01:29:13;;;;;;;;;;;;;;;22.86;100.00;98546.78;5034515;28;19927;-86
2023/08/04 01:31:38;;;;;;;;;;;;;;;22.81;100.00;98552.09;5033870;28;19921;-85
2023/08/04 01:34:04;;;;;;;;;;;;;;;22.77;100.00;98556.34;5033984;28;19921;-83
2023/08/04 01:36:29;;;;;;;;;;;;;;;22.78;100.00;98544.53;5034300;28;19927;-85
2023/08/04 01:38:56;;;;;;;;;;;;;;;22.79;100.00;98546.16;5034588;28;19925;-87
2023/08/04 01:41:21;;;;;;;;;;;;;;;22.77;100.00;98554.47;5034637;28;19925;-87
2023/08/04 01:43:48;;;;;;;;;;;;;;;22.73;100.00;98557.91;5016665;28;19927;-85
2023/08/04 01:46:13;;;;;;;;;;;;;;;22.65;100.00;98560.97;5034441;28;20381;-86
2023/08/04 01:48:39;;;;;;;;;;;;;;;22.73;100.00;98560.59;5033084;28;19921;-86
2023/08/04 01:51:04;;;;;;;;;;;;;;;22.81;100.00;98560.16;5034345;28;20377;-87
2023/08/04 01:53:29;;;;;;;;;;;;;;;22.73;100.00;98553.34;5033184;28;19917;-87
2023/08/04 01:55:55;;;;;;;;;;;;;;;22.45;100.00;98551.50;5016242;28;20388;-85
2023/08/04 01:58:20;;;;;;;;;;;;;;;22.43;100.00;98559.00;5032296;28;19921;-87
2023/08/04 02:00:46;;;;;;;;;;;;;;;22.29;100.00;98556.84;5034264;28;19921;-87
2023/08/04 02:03:11;;;;;;;;;;;;;;;22.14;100.00;98560.09;5033874;28;19921;-86
2023/08/04 02:05:37;;;;;;;;;;;;;;;22.18;100.00;98558.56;5035520;28;19917;-88
2023/08/04 02:08:03;;;;;;;;;;;;;;;22.23;100.00;98558.63;5016843;28;20023;-88
2023/08/04 02:10:29;;;;;;;;;;;;;;;22.30;100.00;98567.38;5017206;28;19925;-86
2023/08/04 02:12:55;;;;;;;;;;;;;;;22.31;100.00;98560.94;5016493;28;19921;-87
2023/08/04 02:15:22;;;;;;;;;;;;;;;22.18;100.00;98566.63;5032414;28;19921;-85
2023/08/04 02:17:47;;;;;;;;;;;;;;;21.90;100.00;98564.72;5034834;28;19923;-85
2023/08/04 02:20:12;;;;;;;;;;;;;;;21.81;100.00;98573.38;5034575;28;19921;-86
2023/08/04 02:22:39;;;;;;;;;;;;;;;21.64;100.00;98571.44;5022444;28;19921;-84
2023/08/04 02:25:04;;;;;;;;;;;;;;;21.63;100.00;98574.38;5032862;28;20296;-86
2023/08/04 02:27:30;;;;;;;;;;;;;;;21.74;100.00;98575.38;5016489;28;19921;-86
2023/08/04 02:29:55;;;;;;;;;;;;;;;21.75;100.00;98577.84;5033912;28;19925;-86
2023/08/04 02:32:20;;;;;;;;;;;;;;;21.77;100.00;98581.09;5032676;28;19925;-86
2023/08/04 02:34:45;;;;;;;;;;;;;;;21.84;100.00;98586.34;5034584;28;19921;-86
2023/08/04 02:37:11;;;;;;;;;;;;;;;21.90;100.00;98585.41;5033719;28;19967;-85
2023/08/04 02:39:36;;;;;;;;;;;;;;;21.98;100.00;98585.03;5034947;28;20293;-86
2023/08/04 02:42:02;;;;;;;;;;;;;;;22.00;100.00;98580.25;5000258;28;19987;-85
2023/08/04 02:44:27;;;;;;;;;;;;;;;21.99;100.00;98594.72;5033995;28;19992;-85
2023/08/04 02:46:52;;;;;;;;;;;;;;;21.95;100.00;98585.53;5032812;28;19921;-85
2023/08/04 02:49:18;;;;;;;;;;;;;;;21.97;100.00;98591.47;5032801;28;19928;-87
2023/08/04 02:51:44;;;;;;;;;;;;;;;21.97;100.00;98594.16;5015787;28;19921;-85
2023/08/04 02:54:10;;;;;;;;;;;;;;;22.01;100.00;98592.63;5033732;28;19928;-85
2023/08/04 02:56:35;;;;;;;;;;;;;;;21.90;100.00;98590.75;5016233;28;19932;-87
2023/08/04 02:59:01;;;;;;;;;;;;;;;21.63;100.00;98585.94;5033700;28;19926;-85
2023/08/04 03:01:26;;;;;;;;;;;;;;;21.40;100.00;98590.53;5033427;28;19922;-86
2023/08/04 03:03:51;;;;;;;;;;;;;;;21.21;100.00;98595.19;5033705;28;19925;-88
2023/08/04 03:06:17;;;;;;;;;;;;;;;21.13;100.00;98587.50;5031718;28;19921;-86
2023/08/04 03:08:42;;;;;;;;;;;;;;;21.16;100.00;98595.09;5024456;28;20348;-86
2023/08/04 03:11:10;;;;;;;;;;;;;;;21.23;100.00;98593.09;5031699;28;20012;-85
2023/08/04 03:13:35;;;;;;;;;;;;;;;21.25;100.00;98599.06;5032074;28;20007;-86
2023/08/04 03:16:01;;;;;;;;;;;;;;;21.38;100.00;98598.81;5031737;28;19965;-85
2023/08/04 03:18:26;;;;;;;;;;;;;;;21.50;100.00;98594.22;5030645;28;19947;-83
2023/08/04 03:20:52;;;;;;;;;;;;;;;21.58;100.00;98598.44;5029559;28;19925;-85
2023/08/04 03:23:17;;;;;;;;;;;;;;;21.64;100.00;98592.94;5032229;28;19921;-84
2023/08/04 03:25:43;;;;;;;;;;;;;;;21.72;100.00;98602.50;5006320;28;19967;-84
2023/08/04 03:28:08;;;;;;;;;;;;;;;21.80;100.00;98603.97;5031631;28;19921;-81
2023/08/04 03:30:33;;;;;;;;;;;;;;;21.79;100.00;98600.50;5031865;28;19928;-85
2023/08/04 03:32:59;;;;;;;;;;;;;;;21.80;100.00;98602.09;5030611;28;19928;-84
2023/08/04 03:35:24;;;;;;;;;;;;;;;21.77;100.00;98599.09;5031366;28;19921;-85
2023/08/04 03:37:50;;;;;;;;;;;;;;;21.62;100.00;98605.75;5030089;28;19921;-86
2023/08/04 03:40:15;;;;;;;;;;;;;;;21.49;100.00;98608.72;5031446;28;19925;-85
2023/08/04 03:42:40;;;;;;;;;;;;;;;21.23;100.00;98607.34;5031607;28;20250;-85
2023/08/04 03:45:06;;;;;;;;;;;;;;;21.30;100.00;98617.13;5031421;28;19925;-86
2023/08/04 03:47:32;;;;;;;;;;;;;;;21.38;100.00;98620.28;5013396;28;19921;-86
2023/08/04 03:49:58;;;;;;;;;;;;;;;21.41;100.00;98630.56;5028191;28;19921;-86
2023/08/04 03:52:23;;;;;;;;;;;;;;;21.41;100.00;98625.19;5031388;28;19925;-84
2023/08/04 03:54:48;;;;;;;;;;;;;;;21.42;100.00;98620.63;5013901;28;20447;-86
2023/08/04 03:57:14;;;;;;;;;;;;;;;21.43;100.00;98625.78;5031346;28;20008;-86
2023/08/04 03:59:39;;;;;;;;;;;;;;;21.40;100.00;98617.34;5031633;28;19921;-86
2023/08/04 04:02:05;;;;;;;;;;;;;;;21.43;100.00;98617.72;5031126;28;19947;-86
2023/08/04 04:04:30;;;;;;;;;;;;;;;21.44;100.00;98613.97;5030980;28;19987;-87
2023/08/04 04:06:56;;;;;;;;;;;;;;;21.32;100.00;98610.50;5031441;28;19925;-86
2023/08/04 04:09:21;;;;;;;;;;;;;;;21.16;100.00;98603.94;5031046;28;19925;-87
2023/08/04 04:11:46;;;;;;;;;;;;;;;21.01;100.00;98613.50;5031269;28;19968;-84
2023/08/04 04:14:12;;;;;;;;;;;;;;;21.06;100.00;98610.94;5031013;28;20024;-85
2023/08/04 04:16:37;;;;;;;;;;;;;;;21.13;100.00;98617.00;5031331;28;19929;-86
2023/08/04 04:19:02;;;;;;;;;;;;;;;21.21;100.00;98614.78;5028210;28;19928;-86
2023/08/04 04:21:27;;;;;;;;;;;;;;;21.21;100.00;98613.97;5030747;28;19921;-85
2023/08/04 04:23:53;;;;;;;;;;;;;;;21.17;100.00;98623.56;5030853;28;19947;-82
2023/08/04 04:26:18;;;;;;;;;;;;;;;21.15;100.00;98633.69;5031197;28;19921;-81
2023/08/04 04:28:43;;;;;;;;;;;;;;;21.17;100.00;98634.28;5031215;28;19928;-80
2023/08/04 04:31:09;;;;;;;;;;;;;;;21.17;100.00;98639.66;5030894;28;19921;-79
2023/08/04 04:33:34;;;;;;;;;;;;;;;21.10;100.00;98638.91;5031010;28;19924;-82
2023/08/04 04:35:59;;;;;;;;;;;;;;;21.06;100.00;98632.38;5030274;28;20258;-82
2023/08/04 04:38:28;;;;;;;;;;;;;;;21.08;100.00;98627.63;5030474;28;20281;-81
2023/08/04 04:40:54;;;;;;;;;;;;;;;21.02;100.00;98628.53;5030863;28;19921;-81
2023/08/04 04:43:19;;;;;;;;;;;;;;;20.91;100.00;98632.03;5012864;28;19960;-81
2023/08/04 04:45:48;;;;;;;;;;;;;;;20.90;100.00;98638.44;5033004;28;20503;-82
2023/08/04 04:48:13;;;;;;;;;;;;;;;20.94;100.00;98650.31;5026575;28;20291;-82
2023/08/04 04:50:39;;;;;;;;;;;;;;;20.83;100.00;98652.78;5031294;28;20012;-83
2023/08/04 04:53:05;;;;;;;;;;;;;;;20.80;100.00;98665.78;5033577;28;19967;-82
2023/08/04 04:55:30;;;;;;;;;;;;;;;20.70;100.00;98665.56;5035278;28;20361;-82
2023/08/04 04:57:55;;;;;;;;;;;;;;;20.70;100.00;98674.41;5022807;28;19961;-81
2023/08/04 05:00:20;;;;;;;;;;;;;;;20.80;100.00;98666.63;5033340;28;19979;-80
2023/08/04 05:02:46;;;;;;;;;;;;;;;20.75;100.00;98665.69;5025006;28;19921;-81
2023/08/04 05:05:11;;;;;;;;;;;;;;;20.55;100.00;98667.84;5032193;28;19921;-82
2023/08/04 05:07:36;;;;;;;;;;;;;;;20.34;100.00;98666.47;5027620;28;19925;-81
2023/08/04 05:10:02;;;;;;;;;;;;;;;19.98;100.00;98652.06;5030417;28;19921;-83
2023/08/04 05:12:27;;;;;;;;;;;;;;;19.97;100.00;98650.44;5031324;28;19923;-83
2023/08/04 05:14:52;;;;;;;;;;;;;;;19.98;100.00;98641.34;5028056;28;19921;-82
2023/08/04 05:17:18;;;;;;;;;;;;;;;20.03;100.00;98643.34;5025628;28;19921;-82
2023/08/04 05:19:44;;;;;;;;;;;;;;;20.09;100.00;98641.66;5026612;28;19921;-82
2023/08/04 05:22:09;;;;;;;;;;;;;;;20.02;100.00;98647.91;5028026;28;19959;-81
2023/08/04 05:24:35;;;;;;;;;;;;;;;19.86;100.00;98651.19;5031383;28;19968;-81
2023/08/04 05:27:01;;;;;;;;;;;;;;;19.79;100.00;98658.47;5027522;28;20389;-81
2023/08/04 05:29:27;;;;;;;;;;;;;;;19.78;100.00;98672.91;5023394;28;19975;-80
2023/08/04 05:31:52;;;;;;;;;;;;;;;19.69;100.00;98673.41;5034144;28;19921;-82
2023/08/04 05:34:17;;;;;;;;;;;;;;;19.63;100.00;98675.13;5033446;28;20012;-80
2023/08/04 05:36:43;;;;;;;;;;;;;;;19.67;100.00;98671.00;5033459;28;19961;-81
2023/08/04 05:39:08;;;;;;;;;;;;;;;19.72;100.00;98684.50;5033290;28;19921;-82
2023/08/04 05:41:33;;;;;;;;;;;;;;;19.78;100.00;98683.63;5028896;28;19921;-81
2023/08/04 05:43:59;;;;;;;;;;;;;;;19.85;100.00;98684.34;5033438;28;19975;-81
2023/08/04 05:46:24;;;;;;;;;;;;;;;19.85;100.00;98684.34;5033489;28;20277;-81
2023/08/04 05:48:49;;;;;;;;;;;;;;;19.89;100.00;98685.56;5033601;28;19921;-82
2023/08/04 05:51:15;;;;;;;;;;;;;;;19.98;100.00;98684.19;5033201;28;19936;-82
2023/08/04 05:53:41;;;;;;;;;;;;;;;20.13;100.00;98691.03;5025108;28;19928;-84
2023/08/04 05:56:06;;;;;;;;;;;;;;;20.24;100.00;98693.78;5031000;28;19921;-81
2023/08/04 05:58:32;;;;;;;;;;;;;;;20.35;100.00;98708.31;5012512;28;20004;-83
2023/08/04 06:00:57;;;;;;;;;;;;;;;20.36;100.00;98708.09;5031667;28;20011;-83
2023/08/04 06:03:22;;;;;;;;;;;;;;;20.47;100.00;98708.34;5019028;28;19928;-82
2023/08/04 06:05:48;;;;;;;;;;;;;;;20.53;100.00;98708.28;5020127;28;20028;-79
2023/08/04 06:08:13;;;;;;;;;;;;;;;20.64;100.00;98718.22;5006766;28;19921;-83
2023/08/04 06:10:38;;;;;;;;;;;;;;;20.74;100.00;98715.78;5023791;28;19920;-81
2023/08/04 06:13:04;;;;;;;;;;;;;;;20.81;100.00;98721.06;5025184;28;19951;-79
2023/08/04 06:15:30;;;;;;;;;;;;;;;20.74;100.00;98715.78;5026415;28;19928;-80
2023/08/04 06:17:55;;;;;;;;;;;;;;;20.80;100.00;98712.19;5028568;28;19925;-80
2023/08/04 06:20:21;;;;;;;;;;;;;;;20.80;100.00;98714.88;5026904;28;19925;-79
2023/08/04 06:22:48;;;;;;;;;;;;;;;20.82;100.00;98712.81;5014123;28;19928;-83
2023/08/04 06:25:14;;;;;;;;;;;;;;;20.87;100.00;98708.59;5015592;28;19921;-84
2023/08/04 06:27:39;;;;;;;;;;;;;;;20.83;100.00;98711.75;5029041;28;19927;-74
2023/08/04 06:30:05;;;;;;;;;;;;;;;20.74;100.00;98694.34;5022171;28;19928;-74
2023/08/04 06:32:30;;;;;;;;;;;;;;;20.72;100.00;98685.72;5025498;28;19921;-74
2023/08/04 06:34:56;;;;;;;;;;;;;;;20.75;100.00;98685.25;5016274;28;20386;-73
2023/08/04 06:37:21;;;;;;;;;;;;;;;20.84;100.00;98685.75;5015718;28;19925;-75
2023/08/04 06:39:46;;;;;;;;;;;;;;;21.00;100.00;98676.22;5016797;28;20086;-76
2023/08/04 06:42:12;;;;;;;;;;;;;;;21.01;100.00;98670.63;5015561;28;20382;-76
2023/08/04 06:44:37;;;;;;;;;;;;;;;21.08;100.00;98674.03;5017527;28;20022;-76
2023/08/04 06:47:03;;;;;;;;;;;;;;;21.08;100.00;98675.91;5017341;28;20019;-75
2023/08/04 06:49:28;;;;;;;;;;;;;;;21.19;100.00;98680.50;5020724;28;20457;-76
2023/08/04 06:51:53;;;;;;;;;;;;;;;21.21;100.00;98678.38;5023172;28;19929;-76
2023/08/04 06:54:19;;;;;;;;;;;;;;;21.37;100.00;98687.63;5018026;28;19925;-75
2023/08/04 06:56:44;;;;;;;;;;;;;;;21.53;100.00;98701.16;5023625;28;19982;-75
2023/08/04 06:59:11;;;;;;;;;;;;;;;21.67;100.00;98688.31;5002441;28;19960;-76
2023/08/04 07:01:36;;;;;;;;;;;;;;;21.82;100.00;98691.31;5020381;28;20377;-75
2023/08/04 07:04:01;;;;;;;;;;;;;;;21.95;100.00;98695.66;5023606;28;19983;-75
2023/08/04 07:06:27;;;;;;;;;;;;;;;22.09;100.00;98690.84;5047316;22;19925;-74
2023/08/04 07:08:52;;;;;;;;;;;;;;;22.13;100.00;98676.69;5045778;28;19972;-73
2023/08/04 07:11:18;;;;;;;;;;;;;;;22.21;100.00;98672.78;5042378;28;19925;-74
2023/08/04 07:13:44;;;;;;;;;;;;;;;22.27;100.00;98683.41;5042585;28;19931;-74
2023/08/04 07:16:10;;;;;;;;;;;;;;;22.34;100.00;98672.50;5046807;28;19920;-74
2023/08/04 07:18:36;;;;;;;;;;;;;;;22.39;100.00;98668.03;5043193;28;19931;-74
2023/08/04 07:21:08;;;;;;;;;;;;;;;22.43;100.00;98671.91;5051117;28;19921;-73
2023/08/04 07:23:34;;;;;;;;;;;;;;;22.56;100.00;98659.22;5031157;28;19982;-74
2023/08/04 07:25:59;;;;;;;;;;;;;;;22.66;100.00;98670.16;5051102;28;20392;-74
2023/08/04 07:28:25;;;;;;;;;;;;;;;22.76;100.00;98673.88;5048017;28;19942;-74
2023/08/04 07:30:50;;;;;;;;;;;;;;;22.90;100.00;98674.38;5051132;28;19921;-73
2023/08/04 07:33:15;;;;;;;;;;;;;;;23.05;100.00;98666.53;5049409;28;19929;-72
2023/08/04 07:35:41;;;;;;;;;;;;;;;23.20;100.00;98661.44;5050660;28;19924;-73
2023/08/04 07:38:06;;;;;;;;;;;;;;;23.27;100.00;98653.97;5046915;28;19966;-75
2023/08/04 07:40:32;;;;;;;;;;;;;;;23.40;100.00;98654.69;5049598;28;20004;-73
2023/08/04 07:42:57;;;;;;;;;;;;;;;23.53;100.00;98649.00;5050866;28;19956;-75
2023/08/04 07:45:23;;;;;;;;;;;;;;;23.67;100.00;98639.50;5048993;28;19921;-74
2023/08/04 07:47:48;;;;;;;;;;;;;;;23.81;100.00;98632.66;5050642;28;19941;-72
2023/08/04 07:50:13;;;;;;;;;;;;;;;23.90;100.00;98631.19;5049390;28;20450;-73
2023/08/04 07:52:39;;;;;;;;;;;;;;;24.01;100.00;98635.63;5050833;28;19921;-72
2023/08/04 07:55:05;;;;;;;;;;;;;;;24.13;100.00;98653.53;5031127;28;19924;-74
2023/08/04 07:57:30;;;;;;;;;;;;;;;24.13;100.00;98664.31;5050551;28;19921;-74
2023/08/04 07:59:56;;;;;;;;;;;;;;;24.17;100.00;98671.66;5049215;28;19928;-75
2023/08/04 08:02:21;;;;;;;;;;;;;;;24.21;100.00;98666.63;5050113;28;19986;-73
2023/08/04 08:04:46;;;;;;;;;;;;;;;24.28;100.00;98662.63;5049754;28;19921;-73
2023/08/04 08:07:12;;;;;;;;;;;;;;;24.38;100.00;98662.78;5049668;28;19928;-73
2023/08/04 08:09:37;;;;;;;;;;;;;;;24.39;100.00;98664.38;5050756;28;19932;-75
2023/08/04 08:12:03;;;;;;;;;;;;;;;24.41;100.00;98666.81;5049558;28;19979;-75
2023/08/04 08:14:28;;;;;;;;;;;;;;;24.38;100.00;98661.94;5050865;28;19920;-73
2023/08/04 08:16:54;;;;;;;;;;;;;;;24.38;100.00;98661.94;5049290;28;19925;-72
2023/08/04 08:19:19;;;;;;;;;;;;;;;24.38;100.00;98654.69;5052152;28;19932;-72
2023/08/04 08:21:45;;;;;;;;;;;;;;;24.39;100.00;98658.16;5053843;28;19935;-73
2023/08/04 08:24:10;;;;;;;;;;;;;;;24.45;100.00;98647.19;5053987;28;19920;-75
2023/08/04 08:26:36;;;;;;;;;;;;;;;24.54;100.00;98649.44;5053838;28;20391;-73
2023/08/04 08:29:06;;;;;;;;;;;;;;;24.63;100.00;98629.00;5052485;28;19924;-72
2023/08/04 08:31:31;;;;;;;;;;;;;;;24.72;100.00;98627.47;5052456;28;20305;-75
2023/08/04 08:33:57;;;;;;;;;;;;;;;24.80;100.00;98638.59;5035719;28;19939;-75
2023/08/04 08:36:22;;;;;;;;;;;;;;;24.82;100.00;98641.88;5054545;28;19974;-75
2023/08/04 08:38:48;;;;;;;;;;;;;;;24.86;100.00;98661.88;5053534;28;19921;-79
2023/08/04 08:41:13;;;;;;;;;;;;;;;24.87;100.00;98652.69;5055248;28;19916;-77
2023/08/04 08:43:43;;;;;;;;;;;;;;;24.97;100.00;98651.22;5053732;28;20373;-75
2023/08/04 08:46:09;;;;;;;;;;;;;;;25.06;100.00;98663.16;5054524;28;19931;-75
2023/08/04 08:48:36;;;;;;;;;;;;;;;25.10;100.00;98664.25;5055364;28;19955;-74
2023/08/04 08:51:03;;;;;;;;;;;;;;;25.14;100.00;98673.47;5054235;28;20284;-77
2023/08/04 08:53:30;;;;;;;;;;;;;;;25.15;99.87;98675.91;5054831;28;20590;-77
2023/08/04 08:55:57;;;;;;;;;;;;;;;25.19;98.67;98685.13;5054195;28;20023;-77
2023/08/04 08:58:22;;;;;;;;;;;;;;;25.28;99.53;98707.88;5036288;28;19990;-77
2023/08/04 09:00:49;;;;;;;;;;;;;;;25.37;100.00;98716.31;5054752;28;20388;-76
2023/08/04 09:03:14;;;;;;;;;;;;;;;25.35;98.24;98715.75;5047600;28;20281;-77
2023/08/04 09:05:40;;;;;;;;;;;;;;;25.40;97.49;98710.38;5055751;28;19971;-81
2023/08/04 09:08:06;;;;;;;;;;;;;;;25.36;98.08;98705.78;5058923;28;19932;-79
2023/08/04 09:10:34;;;;;;;;;;;;;;;25.45;96.84;98710.41;5063734;28;20308;-80
2023/08/04 09:13:00;;;;;;;;;;;;;;;25.37;95.28;98708.22;5023630;28;19936;-80
2023/08/04 09:15:33;;;;;;;;;;;;;;;25.41;95.96;98697.69;5063372;28;19928;-80
2023/08/04 09:17:58;;;;;;;;;;;;;;;25.55;96.06;98688.91;5063271;28;19984;-81
2023/08/04 09:20:28;;;;;;;;;;;;;;;25.70;96.11;98685.50;5045815;28;19924;-80
2023/08/04 09:22:57;;;;;;;;;;;;;;;25.77;95.85;98690.66;5057512;28;20341;-81
2023/08/04 09:25:23;;;;;;;;;;;;;;;25.82;95.23;98688.81;5052852;28;19955;-81
2023/08/04 09:27:51;;;;;;;;;;;;;;;25.92;95.64;98682.66;5054971;28;19921;-81
2023/08/04 09:30:17;;;;;;;;;;;;;;;26.02;95.15;98683.50;5041551;28;20287;-80
2023/08/04 09:32:52;;;;;;;;;;;;;;;26.09;96.16;98677.88;5053361;28;19920;-79
2023/08/04 09:35:20;;;;;;;;;;;;;;;26.12;92.98;98692.72;5050759;28;19958;-80
2023/08/04 09:37:46;;;;;;;;;;;;;;;26.15;92.04;98692.22;5060836;28;20451;-81
2023/08/04 09:40:13;;;;;;;;;;;;;;;26.17;92.93;98693.56;5060175;28;19920;-79
2023/08/04 09:42:39;;;;;;;;;;;;;;;26.23;93.21;98700.66;5060043;28;19928;-80
2023/08/04 09:45:05;;;;;;;;;;;;;;;26.26;93.24;98689.31;5059135;28;19943;-81
2023/08/04 09:47:30;;;;;;;;;;;;;;;26.29;93.09;98679.84;5058720;28;19924;-81
2023/08/04 09:49:56;;;;;;;;;;;;;;;26.30;91.81;98662.53;5058583;28;20400;-81
2023/08/04 09:52:30;;;;;;;;;;;;;;;26.29;92.31;98667.13;5064474;28;19921;-83
2023/08/04 09:54:56;;;;;;;;;;;;;;;26.30;93.80;98673.38;5065133;28;19925;-82
2023/08/04 09:57:23;;;;;;;;;;;;;;;26.30;93.50;98689.59;5063523;28;19933;-80
2023/08/04 09:59:49;;;;;;;;;;;;;;;26.28;93.84;98697.97;5066074;28;19921;-83
2023/08/04 10:02:15;;;;;;;;;;;;;;;26.24;93.93;98686.06;5064894;28;19921;-79
2023/08/04 10:04:41;;;;;;;;;;;;;;;26.22;94.43;98682.75;5053324;28;20339;-77
2023/08/04 10:07:08;;;;;;;;;;;;;;;26.21;94.26;98681.16;5054696;28;20327;-79
2023/08/04 10:09:34;;;;;;;;;;;;;;;26.18;94.68;98664.63;5055460;28;20013;-78
2023/08/04 10:11:59;;;;;;;;;;;;;;;26.16;94.03;98664.06;5052420;28;20040;-79
2023/08/04 10:14:25;;;;;;;;;;;;;;;26.19;93.55;98664.38;5054772;28;19992;-81
2023/08/04 10:16:51;;;;;;;;;;;;;;;26.23;93.15;98651.97;5046173;28;20392;-79
2023/08/04 10:19:18;;;;;;;;;;;;;;;26.24;94.37;98648.19;5052469;28;19933;-79
2023/08/04 10:21:44;;;;;;;;;;;;;;;26.26;94.88;98656.88;5044669;28;19936;-78
2023/08/04 10:24:10;;;;;;;;;;;;;;;26.26;93.81;98656.88;5050210;28;19921;-79
2023/08/04 10:26:48;;;;;;;;;;;;;;;26.28;95.01;98653.88;5053364;28;19931;-78
2023/08/04 10:29:13;;;;;;;;;;;;;;;26.31;95.11;98648.75;5046218;28;20476;-77
2023/08/04 10:31:55;;;;;;;;;;;;;;;26.31;95.27;98643.34;5052629;28;19932;-78
2023/08/04 10:34:37;;;;;;;;;;;;;;;26.36;95.34;98656.06;5045124;28;20051;-78
2023/08/04 10:37:12;;;;;;;;;;;;;;;26.35;96.60;98652.53;5051772;28;20312;-77
2023/08/04 10:39:41;;;;;;;;;;;;;;;26.39;98.24;98645.50;5053217;28;19924;-75
2023/08/04 10:42:23;;;;;;;;;;;;;;;26.40;98.46;98641.75;5050361;28;20028;-77
2023/08/04 10:44:49;;;;;;;;;;;;;;;26.39;98.53;98661.75;5042839;28;19924;-77
2023/08/04 10:47:15;;;;;;;;;;;;;;;26.35;99.15;98655.25;5049726;28;20035;-75
2023/08/04 10:49:40;;;;;;;;;;;;;;;26.39;99.10;98659.03;5050034;28;19968;-77
2023/08/04 10:52:06;;;;;;;;;;;;;;;26.35;98.47;98671.47;5051664;28;19939;-78
2023/08/04 10:54:31;;;;;;;;;;;;;;;26.34;99.33;98685.25;5051296;28;19971;-77
2023/08/04 10:56:57;;;;;;;;;;;;;;;26.25;99.32;98681.47;5052322;28;19931;-77
2023/08/04 10:59:22;;;;;;;;;;;;;;;26.21;99.36;98670.34;5050779;28;19921;-77
2023/08/04 11:01:48;;;;;;;;;;;;;;;26.18;99.71;98665.44;5052638;28;19960;-81
2023/08/04 11:04:15;;;;;;;;;;;;;;;26.17;99.67;98661.13;5043295;28;19967;-80
2023/08/04 11:06:40;;;;;;;;;;;;;;;26.19;99.91;98656.25;5052346;28;19969;-79
2023/08/04 11:09:06;;;;;;;;;;;;;;;26.23;99.95;98662.78;5051817;28;19921;-80
2023/08/04 11:11:31;;;;;;;;;;;;;;;26.27;99.11;98658.47;5052535;28;19928;-77
2023/08/04 11:13:57;;;;;;;;;;;;;;;26.28;98.78;98660.09;5051160;28;19921;-79
2023/08/04 11:16:23;;;;;;;;;;;;;;;26.22;99.23;98666.53;5052742;28;20412;-80
2023/08/04 11:18:48;;;;;;;;;;;;;;;26.14;99.73;98672.47;5052327;28;19920;-79
2023/08/04 11:21:14;;;;;;;;;;;;;;;26.06;99.90;98672.97;5050397;28;20102;-81
2023/08/04 11:23:39;;;;;;;;;;;;;;;25.99;100.00;98661.59;5048192;28;19979;-80
2023/08/04 11:26:07;;;;;;;;;;;;;;;25.92;100.00;98661.81;5038247;28;19924;-77
2023/08/04 11:28:34;;;;;;;;;;;;;;;25.89;100.00;98656.13;5033423;28;20328;-78
2023/08/04 11:31:04;;;;;;;;;;;;;;;25.88;100.00;98654.50;5049858;28;19967;-78
2023/08/04 11:33:29;;;;;;;;;;;;;;;25.86;100.00;98648.56;5042964;28;19947;-78
2023/08/04 11:35:55;;;;;;;;;;;;;;;25.88;100.00;98649.09;5050032;28;19924;-76
2023/08/04 11:38:20;;;;;;;;;;;;;;;25.84;100.00;98658.81;5035584;28;19966;-77
2023/08/04 11:40:59;;;;;;;;;;;;;;;25.83;100.00;98662.59;5035390;28;20018;-78
2023/08/04 11:43:25;;;;;;;;;;;;;;;25.76;100.00;98667.41;5035344;28;19933;-78
2023/08/04 11:45:51;;;;;;;;;;;;;;;25.72;100.00;98682.53;5038663;28;19931;-78
2023/08/04 11:48:23;;;;;;;;;;;;;;;25.62;100.00;98686.78;5033377;28;19920;-78
2023/08/04 11:50:49;;;;;;;;;;;;;;;25.58;100.00;98680.28;5044568;28;19927;-79
2023/08/04 11:53:15;;;;;;;;;;;;;;;25.49;100.00;98679.13;5036761;28;20127;-80
2023/08/04 11:55:58;;;;;;;;;;;;;;;25.41;100.00;98671.50;5046746;28;19992;-80
2023/08/04 11:58:31;;;;;;;;;;;;;;;25.28;100.00;98666.53;5041841;28;19921;-80
2023/08/04 12:00:56;;;;;;;;;;;;;;;25.10;100.00;98639.94;5042988;28;19928;-79
2023/08/04 12:03:22;;;;;;;;;;;;;;;24.90;100.00;98645.22;5044433;28;19925;-79
2023/08/04 12:05:47;;;;;;;;;;;;;;;24.72;100.00;98668.78;5049088;28;19921;-78
2023/08/04 12:08:14;;;;;;;;;;;;;;;24.62;100.00;98690.25;5052243;28;20023;-79
2023/08/04 12:10:39;;;;;;;;;;;;;;;24.43;100.00;98688.97;5053679;28;19975;-79
2023/08/04 12:13:05;;;;;;;;;;;;;;;24.17;100.00;98681.59;5049655;28;19928;-78
2023/08/04 12:15:50;;;;;;;;;;;;;;;24.09;100.00;98691.75;5055707;28;19921;-78
2023/08/04 12:18:25;;;;;;;;;;;;;;;23.95;100.00;98700.47;5042727;28;19924;-78
2023/08/04 12:20:50;;;;;;;;;;;;;;;23.66;100.00;98705.22;5046403;28;19921;-78
2023/08/04 12:23:16;;;;;;;;;;;;;;;23.62;100.00;98701.38;5057424;28;19921;-79
2023/08/04 12:25:41;;;;;;;;;;;;;;;23.39;100.00;98706.91;5051837;28;19943;-81
2023/08/04 12:28:06;;;;;;;;;;;;;;;23.33;100.00;98702.53;5056040;28;19925;-77
2023/08/04 12:30:32;;;;;;;;;;;;;;;23.30;100.00;98692.25;5047042;28;19921;-82
2023/08/04 12:32:57;;;;;;;;;;;;;;;23.24;100.00;98688.66;5035278;28;19940;-81